Sega — WDF8616 — position and weather

sailwx.info

Track history (hours):
 
Tides and Currents Weather Stations Pressure Air Temp Water Temp Dewpoint Dewpoint Depression Visibility Wind Speed Wind Dir Waves Ship Positions

Sega

Owner: MARINEX CONSTRUCTION, INC., CHARLESTON, SC. More information available from US FCC via Universal Licensing System and Coast Guard Vessel Documentation Center.

Last reported at 2018-Jul-20 21:18 UTC. Time now 2018-Jul-21 08:01 UTC.
Position N 32°50' W 079°56'.

Length 21 m; draft 3 m.

Type: Tug. MMSI: 367142070.

Date/timePositionNaut miles runAvg speedWind from/ knotsBaromVisibWave heightAir tempDewpointWater temp
2018-Jul-20 21:18N 32°50' W 079°56'2 7.5
2018-Jul-20 21:00N 32°48' W 079°55'3 6.4
2018-Jul-20 20:30N 32°46' W 079°58'3 5.9
2018-Jul-20 20:00N 32°44' W 080°01'4 7.2
2018-Jul-20 19:29N 32°40' W 080°00'2 3.5
2018-Jul-20 18:55N 32°39' W 079°58'2 1.5
2018-Jul-20 17:41N 32°40' W 080°00'4 3.5
2018-Jul-20 16:36N 32°44' W 080°01'1 5.3
2018-Jul-20 16:30N 32°44' W 080°01'2 3.9
2018-Jul-20 16:00N 32°46' W 079°59'3 5.1
2018-Jul-20 15:30N 32°46' W 079°56'2 3.4
2018-Jul-20 15:00N 32°48' W 079°55'2 3.9
2018-Jul-20 14:30N 32°50' W 079°56'0 0.0
2018-Jul-20 14:00N 32°50' W 079°56'0 0.0
2018-Jul-20 13:31N 32°50' W 079°56'0 0.0
2018-Jul-20 13:00N 32°50' W 079°56'0 0.0
2018-Jul-20 12:30N 32°50' W 079°56'0 0.0
2018-Jul-20 12:00N 32°50' W 079°56'0 0.0
2018-Jul-20 11:31N 32°50' W 079°56'0 0.0
2018-Jul-20 11:00N 32°50' W 079°56'1 0.4
2018-Jul-20 08:50N 32°50' W 079°57'0 0.0
2018-Jul-20 06:59N 32°50' W 079°57'0 0.0
2018-Jul-20 04:20N 32°50' W 079°57'0 0.0
2018-Jul-20 02:47N 32°50' W 079°57'0 0.0
2018-Jul-20 01:44N 32°50' W 079°57'0 0.0
2018-Jul-20 00:27N 32°50' W 079°57'0 0.0
2018-Jul-19 23:12N 32°50' W 079°57'0 0.0
2018-Jul-19 22:20N 32°50' W 079°57'0 0.0
2018-Jul-19 21:57N 32°50' W 079°57'0 0.0
2018-Jul-19 20:20N 32°50' W 079°57'2 7.0
2018-Jul-19 20:00N 32°48' W 079°55'3 5.2
2018-Jul-19 19:30N 32°46' W 079°57'3 5.9
2018-Jul-19 19:00N 32°46' W 080°00'7 5.0
2018-Jul-19 17:38N 32°39' W 079°59'0 1.5
2018-Jul-19 17:24N 32°39' W 079°58'2 1.5
2018-Jul-19 16:12N 32°40' W 080°00'4 5.2
2018-Jul-19 15:24N 32°44' W 080°00'2 5.6
2018-Jul-19 15:01N 32°46' W 079°60'4 7.8
2018-Jul-19 14:30N 32°46' W 079°55'4 0.2
2018-Jul-18 20:42N 32°50' W 079°57'0 0.0
2018-Jul-18 18:16N 32°50' W 079°57'0 0.0
2018-Jul-18 14:52N 32°50' W 079°57'0 0.0
2018-Jul-18 04:12N 32°50' W 079°57'0 0.0
2018-Jul-18 03:58N 32°50' W 079°57'0 0.0
2018-Jul-18 03:28N 32°50' W 079°57'0 0.0
2018-Jul-17 22:00N 32°50' W 079°57'0 0.0
2018-Jul-17 21:06N 32°50' W 079°57'0 0.0
2018-Jul-17 17:38N 32°50' W 079°57'0 0.0
2018-Jul-17 03:50N 32°50' W 079°57'0 0.0
2018-Jul-17 03:30N 32°50' W 079°57'0 0.0
2018-Jul-16 21:29N 32°50' W 079°57'1 0.2
2018-Jul-16 17:37N 32°49' W 079°56'1 8.6
2018-Jul-16 17:30N 32°49' W 079°55'3 6.0
2018-Jul-16 17:00N 32°46' W 079°57'3 6.0
2018-Jul-16 16:30N 32°45' W 080°01'5 7.9
2018-Jul-16 15:52N 32°40' W 080°00'0 0.1
2018-Jul-16 12:39N 32°40' W 079°60'4 2.8
2018-Jul-16 11:18N 32°44' W 080°01'2 5.4
2018-Jul-16 11:00N 32°46' W 080°00'2 4.4
2018-Jul-16 10:31N 32°46' W 079°58'3 5.4
2018-Jul-16 10:01N 32°47' W 079°55'3 0.2
2018-Jul-15 18:21N 32°50' W 079°56'2 7.0
2018-Jul-15 18:00N 32°48' W 079°55'3 5.8
2018-Jul-15 17:30N 32°46' W 079°58'3 5.7
2018-Jul-15 17:00N 32°44' W 080°01'6 3.8
2018-Jul-15 15:29N 32°39' W 079°59'2 0.8
2018-Jul-15 13:24N 32°40' W 080°00'4 2.1
2018-Jul-15 11:24N 32°44' W 080°01'1 1.8
2018-Jul-15 11:00N 32°45' W 080°01'1 2.0
2018-Jul-15 10:30N 32°46' W 080°00'1 2.0
2018-Jul-15 10:00N 32°46' W 079°59'1 1.8
2018-Jul-15 09:30N 32°46' W 079°58'1 1.4
2018-Jul-15 09:00N 32°46' W 079°57'1 1.5
2018-Jul-15 08:30N 32°46' W 079°57'1 1.8
2018-Jul-15 08:00N 32°46' W 079°56'1 2.4
2018-Jul-15 07:30N 32°47' W 079°55'2 4.2
2018-Jul-15 07:00N 32°49' W 079°55'1 0.1
2018-Jul-14 20:28N 32°50' W 079°57'1 0.1
2018-Jul-14 14:01N 32°50' W 079°56'4 7.5
2018-Jul-14 13:30N 32°46' W 079°56'3 5.8
2018-Jul-14 13:00N 32°46' W 079°59'2 4.5
2018-Jul-14 12:30N 32°44' W 080°00'4 1.6
2018-Jul-14 10:01N 32°40' W 080°00'0 8.2
2018-Jul-14 10:00N 32°40' W 080°00'4 6.5
2018-Jul-14 09:26N 32°44' W 080°01'2 5.5
2018-Jul-14 09:00N 32°46' W 079°59'3 6.7
2018-Jul-14 08:30N 32°46' W 079°55'4 0.4
2018-Jul-13 21:28N 32°50' W 079°57'0 0.0
2018-Jul-13 20:56N 32°50' W 079°57'0 0.0
2018-Jul-13 20:28N 32°50' W 079°57'0 0.0
2018-Jul-13 12:15N 32°50' W 079°57'0 0.2
2018-Jul-13 12:00N 32°50' W 079°57'0 0.1
2018-Jul-13 11:29N 32°50' W 079°57'0 0.1
2018-Jul-13 10:53N 32°50' W 079°57'0 0.0
2018-Jul-12 03:06N 32°50' W 079°57'0 0.0
2018-Jul-12 03:00N 32°50' W 079°57'0 0.0
2018-Jul-12 02:30N 32°50' W 079°57'0 0.0
2018-Jul-11 18:24N 32°50' W 079°57'  
Track history (hours):
 
Tides and Currents Weather Stations Pressure Air Temp Water Temp Dewpoint Dewpoint Depression Visibility Wind Speed Wind Dir Waves Ship Positions

Sega

Owner: MARINEX CONSTRUCTION, INC., CHARLESTON, SC. More information available from US FCC via Universal Licensing System and Coast Guard Vessel Documentation Center.

Last reported at 2018-Jul-20 21:18 UTC. Time now 2018-Jul-21 08:01 UTC.
Position N 32°50' W 079°56'.

Length 21 m; draft 3 m.

Type: Tug. MMSI: 367142070.

Date/timePositionNaut miles runAvg speedWind from/ knotsBaromVisibWave heightAir tempDewpointWater temp
2018-Jul-20 21:18N 32°50' W 079°56'2 7.5
2018-Jul-20 21:00N 32°48' W 079°55'3 6.4
2018-Jul-20 20:30N 32°46' W 079°58'3 5.9
2018-Jul-20 20:00N 32°44' W 080°01'4 7.2
2018-Jul-20 19:29N 32°40' W 080°00'2 3.5
2018-Jul-20 18:55N 32°39' W 079°58'2 1.5
2018-Jul-20 17:41N 32°40' W 080°00'4 3.5
2018-Jul-20 16:36N 32°44' W 080°01'1 5.3
2018-Jul-20 16:30N 32°44' W 080°01'2 3.9
2018-Jul-20 16:00N 32°46' W 079°59'3 5.1
2018-Jul-20 15:30N 32°46' W 079°56'2 3.4
2018-Jul-20 15:00N 32°48' W 079°55'2 3.9
2018-Jul-20 14:30N 32°50' W 079°56'0 0.0
2018-Jul-20 14:00N 32°50' W 079°56'0 0.0
2018-Jul-20 13:31N 32°50' W 079°56'0 0.0
2018-Jul-20 13:00N 32°50' W 079°56'0 0.0
2018-Jul-20 12:30N 32°50' W 079°56'0 0.0
2018-Jul-20 12:00N 32°50' W 079°56'0 0.0
2018-Jul-20 11:31N 32°50' W 079°56'0 0.0
2018-Jul-20 11:00N 32°50' W 079°56'1 0.4
2018-Jul-20 08:50N 32°50' W 079°57'0 0.0
2018-Jul-20 06:59N 32°50' W 079°57'0 0.0
2018-Jul-20 04:20N 32°50' W 079°57'0 0.0
2018-Jul-20 02:47N 32°50' W 079°57'0 0.0
2018-Jul-20 01:44N 32°50' W 079°57'0 0.0
2018-Jul-20 00:27N 32°50' W 079°57'0 0.0
2018-Jul-19 23:12N 32°50' W 079°57'0 0.0
2018-Jul-19 22:20N 32°50' W 079°57'0 0.0
2018-Jul-19 21:57N 32°50' W 079°57'0 0.0
2018-Jul-19 20:20N 32°50' W 079°57'2 7.0
2018-Jul-19 20:00N 32°48' W 079°55'3 5.2
2018-Jul-19 19:30N 32°46' W 079°57'3 5.9
2018-Jul-19 19:00N 32°46' W 080°00'7 5.0
2018-Jul-19 17:38N 32°39' W 079°59'0 1.5
2018-Jul-19 17:24N 32°39' W 079°58'2 1.5
2018-Jul-19 16:12N 32°40' W 080°00'4 5.2
2018-Jul-19 15:24N 32°44' W 080°00'2 5.6
2018-Jul-19 15:01N 32°46' W 079°60'4 7.8
2018-Jul-19 14:30N 32°46' W 079°55'4 0.2
2018-Jul-18 20:42N 32°50' W 079°57'0 0.0
2018-Jul-18 18:16N 32°50' W 079°57'0 0.0
2018-Jul-18 14:52N 32°50' W 079°57'0 0.0
2018-Jul-18 04:12N 32°50' W 079°57'0 0.0
2018-Jul-18 03:58N 32°50' W 079°57'0 0.0
2018-Jul-18 03:28N 32°50' W 079°57'0 0.0
2018-Jul-17 22:00N 32°50' W 079°57'0 0.0
2018-Jul-17 21:06N 32°50' W 079°57'0 0.0
2018-Jul-17 17:38N 32°50' W 079°57'0 0.0
2018-Jul-17 03:50N 32°50' W 079°57'0 0.0
2018-Jul-17 03:30N 32°50' W 079°57'0 0.0
2018-Jul-16 21:29N 32°50' W 079°57'1 0.2
2018-Jul-16 17:37N 32°49' W 079°56'1 8.6
2018-Jul-16 17:30N 32°49' W 079°55'3 6.0
2018-Jul-16 17:00N 32°46' W 079°57'3 6.0
2018-Jul-16 16:30N 32°45' W 080°01'5 7.9
2018-Jul-16 15:52N 32°40' W 080°00'0 0.1
2018-Jul-16 12:39N 32°40' W 079°60'4 2.8
2018-Jul-16 11:18N 32°44' W 080°01'2 5.4
2018-Jul-16 11:00N 32°46' W 080°00'2 4.4
2018-Jul-16 10:31N 32°46' W 079°58'3 5.4
2018-Jul-16 10:01N 32°47' W 079°55'3 0.2
2018-Jul-15 18:21N 32°50' W 079°56'2 7.0
2018-Jul-15 18:00N 32°48' W 079°55'3 5.8
2018-Jul-15 17:30N 32°46' W 079°58'3 5.7
2018-Jul-15 17:00N 32°44' W 080°01'6 3.8
2018-Jul-15 15:29N 32°39' W 079°59'2 0.8
2018-Jul-15 13:24N 32°40' W 080°00'4 2.1
2018-Jul-15 11:24N 32°44' W 080°01'1 1.8
2018-Jul-15 11:00N 32°45' W 080°01'1 2.0
2018-Jul-15 10:30N 32°46' W 080°00'1 2.0
2018-Jul-15 10:00N 32°46' W 079°59'1 1.8
2018-Jul-15 09:30N 32°46' W 079°58'1 1.4
2018-Jul-15 09:00N 32°46' W 079°57'1 1.5
2018-Jul-15 08:30N 32°46' W 079°57'1 1.8
2018-Jul-15 08:00N 32°46' W 079°56'1 2.4
2018-Jul-15 07:30N 32°47' W 079°55'2 4.2
2018-Jul-15 07:00N 32°49' W 079°55'1 0.1
2018-Jul-14 20:28N 32°50' W 079°57'1 0.1
2018-Jul-14 14:01N 32°50' W 079°56'4 7.5
2018-Jul-14 13:30N 32°46' W 079°56'3 5.8
2018-Jul-14 13:00N 32°46' W 079°59'2 4.5
2018-Jul-14 12:30N 32°44' W 080°00'4 1.6
2018-Jul-14 10:01N 32°40' W 080°00'0 8.2
2018-Jul-14 10:00N 32°40' W 080°00'4 6.5
2018-Jul-14 09:26N 32°44' W 080°01'2 5.5
2018-Jul-14 09:00N 32°46' W 079°59'3 6.7
2018-Jul-14 08:30N 32°46' W 079°55'4 0.4
2018-Jul-13 21:28N 32°50' W 079°57'0 0.0
2018-Jul-13 20:56N 32°50' W 079°57'0 0.0
2018-Jul-13 20:28N 32°50' W 079°57'0 0.0
2018-Jul-13 12:15N 32°50' W 079°57'0 0.2
2018-Jul-13 12:00N 32°50' W 079°57'0 0.1
2018-Jul-13 11:29N 32°50' W 079°57'0 0.1
2018-Jul-13 10:53N 32°50' W 079°57'0 0.0
2018-Jul-12 03:06N 32°50' W 079°57'0 0.0
2018-Jul-12 03:00N 32°50' W 079°57'0 0.0
2018-Jul-12 02:30N 32°50' W 079°57'0 0.0
2018-Jul-11 18:24N 32°50' W 079°57'  

Dump ship's entire track history